Meteghan, Canada
Current Conditions -  °F | °C
As of 11:00 AM on Tuesday 21 Oct 2014 (Local Time) from CYQI Reporting Station
Overcast Overcast  
Wind Chill: 55°   Ceiling: 25000
Heat Index: 55°   Visibility: 15mi
Dew Point: 48°   Wind: 6mph
Humidity: 77%   Direction: 180°S
Pressure: 30.13"   Gusts: NA
Location:  44.18°N, 66.15°W
Report Text: CYQI 211400Z 18005KT 120V210 15SM SCT025 SCT150 OVC250 13/09 A3013 RMK SC3AC1CI4 SLP203
Loading
Personal Weather Stations






























Interactive Weather Map
Tropical Storm Tracking
New forecast layout! Learn more

10-Day Weather Forecast

Advertisements
Track Severe Weather on mobile